Time;durP1;ratioP1;P1;durP2;ratioP2;P2;SDS_P1;SDS_P2;PMS_P1;PMS_P2;Temp;Humidity;BMP_temperature;BMP_pressure;BME280_temperature;BME280_humidity;BME280_pressure;Samples;Min_cycle;Max_cycle;Signal;HPM_P1;HPM_P2
2021/06/05 00:01:37;;;;;;;10.18;6.57;;;;;;;;;;5027081;28;20454;-49
2021/06/05 00:04:03;;;;;;;8.55;6.22;;;;;;;;;;5021303;28;20517;-55
2021/06/05 00:06:30;;;;;;;9.50;6.55;;;;;;;;;;5009875;28;20538;-51
2021/06/05 00:08:56;;;;;;;9.85;6.93;;;;;;;;;;5024322;28;20060;-51
2021/06/05 00:11:23;;;;;;;7.85;5.90;;;;;;;;;;5024235;28;20160;-49
2021/06/05 00:13:56;;;;;;;13.20;6.32;;;;;;;;;;5015480;28;20100;-49
2021/06/05 00:16:23;;;;;;;9.57;6.80;;;;;;;;;;5028950;28;20025;-51
2021/06/05 00:18:50;;;;;;;10.05;7.22;;;;;;;;;;5033216;28;20030;-49
2021/06/05 00:21:17;;;;;;;12.82;7.32;;;;;;;;;;5033158;28;20034;-49
2021/06/05 00:23:43;;;;;;;8.68;6.90;;;;;;;;;;5027467;28;21299;-49
2021/06/05 00:26:09;;;;;;;8.73;6.22;;;;;;;;;;5018376;28;20112;-51
2021/06/05 00:28:35;;;;;;;12.52;6.70;;;;;;;;;;5015801;28;20073;-48
2021/06/05 00:31:02;;;;;;;11.25;7.28;;;;;;;;;;5026921;28;20060;-48
2021/06/05 00:33:28;;;;;;;9.18;6.30;;;;;;;;;;5020174;28;20042;-50
2021/06/05 00:35:54;;;;;;;9.10;7.30;;;;;;;;;;5021088;28;20101;-49
2021/06/05 00:38:20;;;;;;;8.57;6.82;;;;;;;;;;5022814;28;20417;-51
2021/06/05 00:40:48;;;;;;;8.70;6.82;;;;;;;;;;5026525;28;20583;-52
2021/06/05 00:43:15;;;;;;;10.15;6.40;;;;;;;;;;5018705;28;20390;-54
2021/06/05 00:45:43;;;;;;;8.70;5.88;;;;;;;;;;5028709;28;20506;-49
2021/06/05 00:48:09;;;;;;;9.60;7.43;;;;;;;;;;5021629;28;20081;-49
2021/06/05 00:50:36;;;;;;;7.68;6.22;;;;;;;;;;5026617;28;20457;-49
2021/06/05 00:53:03;;;;;;;10.52;6.95;;;;;;;;;;5032770;28;20211;-50
2021/06/05 00:55:30;;;;;;;10.35;7.38;;;;;;;;;;5022654;28;20029;-50
2021/06/05 00:57:56;;;;;;;8.88;7.05;;;;;;;;;;5019266;28;20108;-48
2021/06/05 01:00:40;;;;;;;9.15;7.20;;;;;;;;;;5032431;28;20092;-50
2021/06/05 01:03:06;;;;;;;;;;;;;;;;;;5024285;28;20437;-52
2021/06/05 01:05:33;;;;;;;9.43;6.47;;;;;;;;;;5023878;28;19988;-49
2021/06/05 01:08:07;;;;;;;9.98;6.75;;;;;;;;;;5027195;28;20029;-50
2021/06/05 01:10:34;;;;;;;11.90;7.60;;;;;;;;;;5009510;28;20025;-49
2021/06/05 01:13:17;;;;;;;9.95;6.70;;;;;;;;;;5013359;28;20433;-48
2021/06/05 01:15:52;;;;;;;9.40;6.80;;;;;;;;;;5032044;28;20045;-48
2021/06/05 01:18:44;;;;;;;9.38;7.03;;;;;;;;;;5032501;28;20101;-49
2021/06/05 01:21:30;;;;;;;8.32;6.35;;;;;;;;;;5030363;28;20115;-49
2021/06/05 01:24:08;;;;;;;8.35;6.78;;;;;;;;;;5022229;28;20034;-51
2021/06/05 01:26:35;;;;;;;7.68;6.13;;;;;;;;;;5016345;28;20098;-51
2021/06/05 01:29:14;;;;;;;11.45;6.53;;;;;;;;;;5012182;28;20494;-51
2021/06/05 01:31:41;;;;;;;11.63;7.10;;;;;;;;;;5029446;28;20041;-51
2021/06/05 01:34:08;;;;;;;10.90;7.20;;;;;;;;;;5004078;28;20121;-48
2021/06/05 01:36:36;;;;;;;11.38;7.25;;;;;;;;;;5024606;28;20045;-48
2021/06/05 01:39:04;;;;;;;9.55;6.63;;;;;;;;;;5019831;28;20053;-52
2021/06/05 01:41:32;;;;;;;9.98;7.03;;;;;;;;;;5031232;28;20033;-50
2021/06/05 01:43:59;;;;;;;9.73;6.90;;;;;;;;;;5010490;28;20061;-51
2021/06/05 01:46:28;;;;;;;9.80;6.30;;;;;;;;;;5028636;28;20104;-52
2021/06/05 01:48:54;;;;;;;10.48;7.15;;;;;;;;;;5031803;28;20035;-51
2021/06/05 01:51:22;;;;;;;9.80;6.70;;;;;;;;;;5031726;28;20132;-49
2021/06/05 01:53:50;;;;;;;9.77;6.65;;;;;;;;;;5024406;28;20030;-55
2021/06/05 01:56:21;;;;;;;7.93;6.72;;;;;;;;;;5024262;28;20076;-48
2021/06/05 01:58:48;;;;;;;8.35;6.40;;;;;;;;;;5024580;28;20013;-51
2021/06/05 02:01:14;;;;;;;8.48;6.47;;;;;;;;;;5028681;28;20392;-49
2021/06/05 02:03:40;;;;;;;10.43;6.57;;;;;;;;;;5014520;28;20120;-49
2021/06/05 02:06:07;;;;;;;9.63;6.72;;;;;;;;;;5016214;28;20026;-49
2021/06/05 02:08:33;;;;;;;7.78;6.65;;;;;;;;;;5026173;28;20025;-49
2021/06/05 02:11:06;;;;;;;12.85;7.13;;;;;;;;;;5031829;28;20393;-48
2021/06/05 02:13:36;;;;;;;9.77;7.13;;;;;;;;;;5022352;28;20026;-48
2021/06/05 02:16:06;;;;;;;9.93;6.35;;;;;;;;;;5017784;28;20404;-48
2021/06/05 02:18:34;;;;;;;9.40;6.82;;;;;;;;;;5027831;28;20029;-49
2021/06/05 02:21:14;;;;;;;10.05;6.70;;;;;;;;;;5019251;28;20363;-48
2021/06/05 02:23:50;;;;;;;10.35;6.50;;;;;;;;;;5025415;28;20022;-49
2021/06/05 02:26:18;;;;;;;9.18;6.55;;;;;;;;;;5016271;28;20092;-50
2021/06/05 02:28:45;;;;;;;7.97;6.38;;;;;;;;;;5020383;28;20030;-49
2021/06/05 02:31:12;;;;;;;11.13;7.07;;;;;;;;;;5027160;28;20219;-49
2021/06/05 02:33:38;;;;;;;8.52;6.93;;;;;;;;;;5024669;28;20107;-52
2021/06/05 02:36:06;;;;;;;11.90;6.95;;;;;;;;;;5015863;28;20091;-53
2021/06/05 02:38:32;;;;;;;8.93;6.30;;;;;;;;;;5031505;28;20041;-49
2021/06/05 02:40:59;;;;;;;9.68;6.82;;;;;;;;;;5028107;28;20030;-49
2021/06/05 02:43:28;;;;;;;9.52;6.53;;;;;;;;;;5016274;28;20034;-49
2021/06/05 02:45:54;;;;;;;8.95;6.72;;;;;;;;;;5017854;28;20079;-51
2021/06/05 02:48:20;;;;;;;9.88;7.10;;;;;;;;;;5031459;28;20033;-48
2021/06/05 02:50:48;;;;;;;10.93;7.35;;;;;;;;;;5031110;28;20057;-49
2021/06/05 02:53:15;;;;;;;9.98;7.10;;;;;;;;;;5029720;28;20038;-50
2021/06/05 02:55:41;;;;;;;8.65;6.65;;;;;;;;;;5029823;28;20120;-50
2021/06/05 02:58:08;;;;;;;9.02;6.90;;;;;;;;;;5023982;28;20030;-50
2021/06/05 03:00:39;;;;;;;11.80;6.85;;;;;;;;;;5029593;28;20029;-48
2021/06/05 03:03:05;;;;;;;8.73;6.40;;;;;;;;;;5019598;28;20134;-50
2021/06/05 03:05:32;;;;;;;13.80;6.68;;;;;;;;;;5024143;28;20502;-49
2021/06/05 03:07:58;;;;;;;10.15;6.43;;;;;;;;;;5018372;28;20032;-52
2021/06/05 03:10:25;;;;;;;9.75;6.93;;;;;;;;;;5030491;28;20034;-49
2021/06/05 03:12:51;;;;;;;8.80;6.95;;;;;;;;;;5027292;28;20124;-52
2021/06/05 03:15:18;;;;;;;9.25;6.18;;;;;;;;;;5018597;28;20549;-48
2021/06/05 03:17:44;;;;;;;8.82;6.30;;;;;;;;;;5027404;28;20754;-49
2021/06/05 03:20:13;;;;;;;12.43;6.65;;;;;;;;;;5033018;28;20040;-52
2021/06/05 03:22:39;;;;;;;8.10;6.38;;;;;;;;;;5027940;28;20116;-52
2021/06/05 03:25:06;;;;;;;9.82;6.50;;;;;;;;;;5018809;28;20018;-49
2021/06/05 03:27:32;;;;;;;8.98;6.95;;;;;;;;;;5014067;28;20042;-49
2021/06/05 03:29:58;;;;;;;9.55;7.00;;;;;;;;;;5020516;28;20033;-49
2021/06/05 03:32:24;;;;;;;10.63;7.35;;;;;;;;;;5031785;28;20049;-48
2021/06/05 03:34:50;;;;;;;9.18;7.07;;;;;;;;;;5015665;28;20065;-49
2021/06/05 03:37:16;;;;;;;9.38;7.15;;;;;;;;;;5013816;28;20112;-49
2021/06/05 03:39:42;;;;;;;9.32;6.93;;;;;;;;;;5033577;28;20100;-48
2021/06/05 03:42:09;;;;;;;8.73;6.50;;;;;;;;;;5028800;28;20104;-52
2021/06/05 03:44:35;;;;;;;8.63;6.72;;;;;;;;;;5024233;28;20398;-52
2021/06/05 03:47:01;;;;;;;8.45;6.95;;;;;;;;;;5025515;28;20037;-49
2021/06/05 03:49:27;;;;;;;9.95;7.05;;;;;;;;;;5027511;28;20029;-50
2021/06/05 03:51:53;;;;;;;9.70;6.38;;;;;;;;;;5019108;28;20540;-54
2021/06/05 03:54:19;;;;;;;11.15;7.55;;;;;;;;;;5028750;28;20036;-50
2021/06/05 03:56:45;;;;;;;9.93;6.20;;;;;;;;;;5015016;28;20199;-49
2021/06/05 03:59:12;;;;;;;7.57;5.95;;;;;;;;;;5027269;28;20048;-48
2021/06/05 04:01:39;;;;;;;9.30;6.53;;;;;;;;;;5019664;28;20118;-49
2021/06/05 04:04:05;;;;;;;9.75;6.88;;;;;;;;;;5022261;28;20087;-49
2021/06/05 04:06:32;;;;;;;8.18;5.70;;;;;;;;;;5014885;28;20026;-48
2021/06/05 04:08:58;;;;;;;7.70;6.63;;;;;;;;;;5024157;28;20091;-49
2021/06/05 04:11:25;;;;;;;9.60;6.95;;;;;;;;;;5021070;28;20037;-49
2021/06/05 04:13:51;;;;;;;9.57;6.35;;;;;;;;;;5027429;28;20029;-49
2021/06/05 04:16:17;;;;;;;7.22;6.15;;;;;;;;;;5033028;28;20105;-51
2021/06/05 04:18:43;;;;;;;9.48;6.88;;;;;;;;;;5033473;28;20062;-50
2021/06/05 04:21:14;;;;;;;7.68;6.68;;;;;;;;;;5025141;28;20091;-50
2021/06/05 04:23:40;;;;;;;7.30;6.20;;;;;;;;;;5030479;28;20026;-49
2021/06/05 04:26:06;;;;;;;9.43;6.85;;;;;;;;;;5015844;28;20036;-49
2021/06/05 04:28:33;;;;;;;10.27;6.40;;;;;;;;;;5012808;28;20061;-54
2021/06/05 04:30:59;;;;;;;10.52;5.95;;;;;;;;;;5022831;28;20076;-49
2021/06/05 04:33:27;;;;;;;9.68;5.97;;;;;;;;;;5031845;28;20116;-52
2021/06/05 04:35:54;;;;;;;7.25;5.22;;;;;;;;;;5026457;28;20026;-50
2021/06/05 04:38:20;;;;;;;8.65;5.53;;;;;;;;;;5031214;28;20105;-51
2021/06/05 04:40:46;;;;;;;6.95;5.05;;;;;;;;;;5016845;28;20120;-49
2021/06/05 04:43:14;;;;;;;9.00;5.40;;;;;;;;;;5013657;28;20102;-50
2021/06/05 04:45:40;;;;;;;7.35;5.90;;;;;;;;;;5018523;28;20414;-48
2021/06/05 04:48:06;;;;;;;8.02;5.95;;;;;;;;;;5031771;28;20057;-49
2021/06/05 04:50:33;;;;;;;6.85;5.32;;;;;;;;;;5024461;28;20026;-48
2021/06/05 04:52:59;;;;;;;8.60;6.28;;;;;;;;;;5021764;28;20041;-50
2021/06/05 04:55:25;;;;;;;8.02;5.20;;;;;;;;;;5014637;28;20117;-53
2021/06/05 04:57:52;;;;;;;6.72;4.93;;;;;;;;;;5021741;28;20528;-51
2021/06/05 05:00:22;;;;;;;6.25;4.72;;;;;;;;;;5017862;28;20022;-54
2021/06/05 05:02:47;;;;;;;8.63;5.20;;;;;;;;;;5018505;28;20041;-50
2021/06/05 05:05:14;;;;;;;6.55;4.75;;;;;;;;;;5014983;28;20021;-50
2021/06/05 05:07:40;;;;;;;6.20;4.45;;;;;;;;;;5017154;28;20034;-50
2021/06/05 05:10:06;;;;;;;7.40;5.18;;;;;;;;;;5024629;28;20030;-49
2021/06/05 05:12:32;;;;;;;5.50;4.50;;;;;;;;;;5011960;28;20169;-48
2021/06/05 05:14:58;;;;;;;6.25;4.80;;;;;;;;;;5024513;28;20447;-49
2021/06/05 05:17:24;;;;;;;9.02;5.10;;;;;;;;;;5012032;28;20030;-49
2021/06/05 05:19:50;;;;;;;6.88;4.45;;;;;;;;;;5030672;28;20369;-49
2021/06/05 05:22:16;;;;;;;6.10;4.43;;;;;;;;;;5012883;28;20033;-49
2021/06/05 05:24:42;;;;;;;7.72;4.38;;;;;;;;;;5024377;28;20449;-49
2021/06/05 05:27:09;;;;;;;6.78;4.80;;;;;;;;;;5013131;28;20105;-52
2021/06/05 05:29:35;;;;;;;7.18;4.18;;;;;;;;;;5017759;28;20034;-51
2021/06/05 05:32:01;;;;;;;5.80;4.15;;;;;;;;;;5015571;28;20042;-49
2021/06/05 05:34:27;;;;;;;7.13;4.45;;;;;;;;;;5012844;28;20037;-50
2021/06/05 05:36:53;;;;;;;7.00;4.30;;;;;;;;;;5004265;28;20087;-50
2021/06/05 05:39:19;;;;;;;6.28;4.45;;;;;;;;;;5011701;28;20374;-49
2021/06/05 05:41:48;;;;;;;7.15;4.32;;;;;;;;;;5016134;28;20545;-50
2021/06/05 05:44:14;;;;;;;7.22;4.05;;;;;;;;;;5017163;28;20030;-49
2021/06/05 05:46:40;;;;;;;10.35;4.88;;;;;;;;;;5017972;28;20025;-51
2021/06/05 05:49:06;;;;;;;7.03;4.10;;;;;;;;;;5024084;28;20120;-52
2021/06/05 05:51:32;;;;;;;6.20;4.00;;;;;;;;;;5028202;28;20079;-50
2021/06/05 05:53:58;;;;;;;5.45;4.25;;;;;;;;;;5031874;28;20466;-49
2021/06/05 05:56:25;;;;;;;9.32;4.10;;;;;;;;;;5028463;28;20108;-49
2021/06/05 05:58:53;;;;;;;5.32;4.03;;;;;;;;;;5020513;28;20037;-49
2021/06/05 06:01:20;;;;;;;7.80;4.28;;;;;;;;;;5022660;28;20483;-51
2021/06/05 06:03:47;;;;;;;4.38;3.45;;;;;;;;;;5010966;28;20061;-53
2021/06/05 06:06:13;;;;;;;4.45;3.55;;;;;;;;;;5018652;28;20037;-51
2021/06/05 06:08:39;;;;;;;6.57;3.53;;;;;;;;;;5011722;28;20092;-50
2021/06/05 06:11:06;;;;;;;7.55;4.03;;;;;;;;;;5014726;28;20032;-54
2021/06/05 06:13:32;;;;;;;5.07;4.00;;;;;;;;;;5024690;28;20034;-49
2021/06/05 06:15:59;;;;;;;5.38;3.95;;;;;;;;;;5016855;28;20048;-51
2021/06/05 06:18:25;;;;;;;4.10;3.28;;;;;;;;;;5026063;28;20026;-50
2021/06/05 06:20:52;;;;;;;4.95;3.65;;;;;;;;;;5017651;28;20066;-50
2021/06/05 06:23:39;;;;;;;6.00;3.90;;;;;;;;;;5011861;28;20036;-49
2021/06/05 06:26:07;;;;;;;4.30;3.30;;;;;;;;;;5022259;28;20090;-49
2021/06/05 06:28:35;;;;;;;6.07;3.30;;;;;;;;;;5021483;28;20030;-50
2021/06/05 06:31:01;;;;;;;5.70;3.03;;;;;;;;;;5025885;28;20565;-52
2021/06/05 06:33:28;;;;;;;10.05;3.70;;;;;;;;;;5019229;28;20108;-52
2021/06/05 06:35:55;;;;;;;3.97;3.28;;;;;;;;;;5026711;28;20026;-50
2021/06/05 06:38:30;;;;;;;4.90;3.13;;;;;;;;;;5022673;28;20034;-52
2021/06/05 06:40:56;;;;;;;5.63;3.30;;;;;;;;;;5035679;28;20117;-50
2021/06/05 06:43:24;;;;;;;7.13;3.08;;;;;;;;;;5014044;28;20030;-51
2021/06/05 06:45:50;;;;;;;3.58;2.65;;;;;;;;;;5014759;28;20045;-50
2021/06/05 06:48:16;;;;;;;5.57;3.03;;;;;;;;;;5031606;28;20057;-53
2021/06/05 06:50:42;;;;;;;4.50;2.85;;;;;;;;;;5014910;28;20029;-50
2021/06/05 06:53:09;;;;;;;4.82;3.70;;;;;;;;;;5021866;28;20440;-52
2021/06/05 06:55:35;;;;;;;4.40;2.95;;;;;;;;;;5024971;28;20466;-50
2021/06/05 06:58:01;;;;;;;4.95;2.80;;;;;;;;;;5021668;28;20108;-51
2021/06/05 07:00:35;;;;;;;5.35;2.72;;;;;;;;;;5016038;28;20121;-50
2021/06/05 07:03:01;;;;;;;5.13;3.45;;;;;;;;;;5012061;28;20105;-50
2021/06/05 07:05:27;;;;;;;5.35;3.22;;;;;;;;;;5017161;28;20057;-49
2021/06/05 07:08:05;;;;;;;10.15;3.00;;;;;;;;;;5022326;28;20072;-51
2021/06/05 07:10:32;;;;;;;4.03;2.92;;;;;;;;;;5030441;28;20057;-50
2021/06/05 07:12:58;;;;;;;3.72;2.47;;;;;;;;;;5020448;28;20044;-51
2021/06/05 07:15:24;;;;;;;7.45;3.45;;;;;;;;;;5026169;28;20029;-49
2021/06/05 07:17:50;;;;;;;5.20;2.65;;;;;;;;;;5020560;28;21797;-50
2021/06/05 07:20:16;;;;;;;5.00;2.80;;;;;;;;;;5019896;28;20029;-50
2021/06/05 07:22:42;;;;;;;3.60;2.78;;;;;;;;;;5020820;28;20088;-51
2021/06/05 07:25:08;;;;;;;4.38;2.90;;;;;;;;;;5021981;28;20164;-54
2021/06/05 07:27:34;;;;;;;5.60;2.65;;;;;;;;;;5008160;28;20134;-55
2021/06/05 07:30:00;;;;;;;3.13;2.45;;;;;;;;;;5015636;28;20112;-52
2021/06/05 07:32:26;;;;;;;3.05;2.47;;;;;;;;;;5022675;28;20046;-50
2021/06/05 07:34:52;;;;;;;4.57;3.20;;;;;;;;;;5021410;28;20477;-52
2021/06/05 07:37:20;;;;;;;5.03;2.97;;;;;;;;;;5022609;28;20108;-53
2021/06/05 07:39:47;;;;;;;4.13;2.80;;;;;;;;;;5030897;28;20116;-49
2021/06/05 07:42:13;;;;;;;5.90;2.63;;;;;;;;;;5029573;28;20532;-51
2021/06/05 07:44:39;;;;;;;7.00;3.17;;;;;;;;;;5026446;28;20033;-50
2021/06/05 07:47:05;;;;;;;4.10;2.55;;;;;;;;;;5019467;28;20117;-50
2021/06/05 07:49:33;;;;;;;4.18;2.70;;;;;;;;;;5024603;28;20037;-50
2021/06/05 07:52:00;;;;;;;4.68;2.95;;;;;;;;;;5033658;28;20049;-50
2021/06/05 07:54:26;;;;;;;6.18;2.97;;;;;;;;;;5021020;28;20025;-51
2021/06/05 07:56:52;;;;;;;4.53;2.60;;;;;;;;;;5016857;28;20018;-52
2021/06/05 07:59:19;;;;;;;6.75;2.72;;;;;;;;;;5019874;28;20075;-53
2021/06/05 08:01:45;;;;;;;6.68;3.08;;;;;;;;;;5015177;28;20038;-51
2021/06/05 08:04:11;;;;;;;3.40;2.70;;;;;;;;;;5013564;28;20473;-53
2021/06/05 08:06:37;;;;;;;7.50;3.05;;;;;;;;;;5031658;28;20413;-50
2021/06/05 08:09:04;;;;;;;5.22;3.20;;;;;;;;;;5021214;28;20109;-50
2021/06/05 08:11:30;;;;;;;5.28;3.05;;;;;;;;;;5026856;28;20430;-50
2021/06/05 08:13:56;;;;;;;6.03;2.67;;;;;;;;;;5027477;28;20033;-50
2021/06/05 08:16:22;;;;;;;6.22;2.83;;;;;;;;;;5017755;28;20026;-50
2021/06/05 08:18:48;;;;;;;4.68;2.83;;;;;;;;;;5014716;28;20355;-50
2021/06/05 08:21:14;;;;;;;6.05;3.10;;;;;;;;;;5033127;28;20057;-50
2021/06/05 08:23:41;;;;;;;3.90;2.67;;;;;;;;;;5022630;28;20478;-49
2021/06/05 08:26:08;;;;;;;5.50;3.13;;;;;;;;;;5022265;28;20056;-49
2021/06/05 08:28:34;;;;;;;4.13;3.03;;;;;;;;;;5025705;28;20029;-51
2021/06/05 08:31:02;;;;;;;4.68;3.03;;;;;;;;;;5018356;28;20481;-50
2021/06/05 08:33:28;;;;;;;5.82;3.00;;;;;;;;;;5015493;28;20549;-50
2021/06/05 08:35:54;;;;;;;4.68;2.85;;;;;;;;;;5028714;28;20481;-52
2021/06/05 08:38:22;;;;;;;7.63;2.45;;;;;;;;;;5016905;28;20034;-50
2021/06/05 08:40:50;;;;;;;6.82;2.95;;;;;;;;;;5022356;28;20079;-52
2021/06/05 08:43:46;;;;;;;3.80;2.75;;;;;;;;;;5020531;28;20018;-53
2021/06/05 08:46:12;;;;;;;4.18;2.35;;;;;;;;;;5018308;28;20132;-50
2021/06/05 08:48:39;;;;;;;6.15;2.97;;;;;;;;;;5016821;28;20029;-49
2021/06/05 08:51:12;;;;;;;4.45;2.28;;;;;;;;;;5021745;28;20493;-50
2021/06/05 08:53:38;;;;;;;4.38;2.92;;;;;;;;;;5016666;28;20037;-54
2021/06/05 08:56:06;;;;;;;3.55;2.80;;;;;;;;;;5011258;28;20032;-52
2021/06/05 08:58:37;;;;;;;5.78;2.60;;;;;;;;;;5012519;28;20030;-52
2021/06/05 09:01:06;;;;;;;6.32;2.65;;;;;;;;;;5026248;28;20076;-52
2021/06/05 09:03:33;;;;;;;4.50;2.67;;;;;;;;;;5018451;28;20033;-51
2021/06/05 09:06:01;;;;;;;5.05;3.03;;;;;;;;;;5026759;28;20433;-49
2021/06/05 09:08:28;;;;;;;5.18;2.80;;;;;;;;;;5014825;28;20375;-49
2021/06/05 09:10:54;;;;;;;5.35;2.65;;;;;;;;;;5020233;28;20488;-53
2021/06/05 09:13:20;;;;;;;3.58;2.63;;;;;;;;;;5014230;28;20030;-50
2021/06/05 09:15:46;;;;;;;5.68;2.65;;;;;;;;;;5030930;28;20033;-50
2021/06/05 09:18:13;;;;;;;3.85;2.90;;;;;;;;;;5013758;28;20033;-53
2021/06/05 09:20:43;;;;;;;2.60;2.35;;;;;;;;;;5025782;28;20030;-55
2021/06/05 09:23:21;;;;;;;6.95;3.30;;;;;;;;;;5013228;28;20037;-53
2021/06/05 09:25:47;;;;;;;4.50;2.72;;;;;;;;;;5012609;28;20120;-53
2021/06/05 09:28:16;;;;;;;5.75;3.08;;;;;;;;;;5011086;28;20022;-53
2021/06/05 09:30:42;;;;;;;4.93;2.60;;;;;;;;;;5023777;28;20103;-56
2021/06/05 09:33:11;;;;;;;3.45;2.15;;;;;;;;;;5016305;28;20049;-51
2021/06/05 09:35:46;;;;;;;4.93;2.90;;;;;;;;;;5015404;28;20425;-50
2021/06/05 09:38:17;;;;;;;6.20;2.92;;;;;;;;;;5032193;28;20428;-52
2021/06/05 09:41:13;;;;;;;4.63;2.78;;;;;;;;;;5016663;28;20034;-52
2021/06/05 09:43:41;;;;;;;5.28;2.63;;;;;;;;;;5004088;28;20419;-55
2021/06/05 09:46:10;;;;;;;4.32;2.60;;;;;;;;;;5019841;28;20033;-55
2021/06/05 09:48:39;;;;;;;5.22;2.50;;;;;;;;;;5024353;28;20108;-54
2021/06/05 09:51:23;;;;;;;10.32;2.50;;;;;;;;;;5013565;28;20034;-54
2021/06/05 09:53:56;;;;;;;4.40;2.90;;;;;;;;;;5027012;28;20128;-52
2021/06/05 09:56:22;;;;;;;;;;;;;;;;;;5013282;28;20534;-50
2021/06/05 09:58:59;;;;;;;5.82;2.97;;;;;;;;;;5009499;28;19993;-53
2021/06/05 10:01:26;;;;;;;4.18;2.67;;;;;;;;;;5020065;28;20037;-55
2021/06/05 10:03:56;;;;;;;4.43;3.10;;;;;;;;;;5025693;28;20036;-50
2021/06/05 10:06:35;;;;;;;4.70;2.60;;;;;;;;;;5027521;28;20093;-54
2021/06/05 10:09:03;;;;;;;5.35;3.10;;;;;;;;;;5023921;28;20033;-50
2021/06/05 10:11:40;;;;;;;3.90;2.30;;;;;;;;;;5025085;28;20079;-50
2021/06/05 10:14:15;;;;;;;4.35;2.55;;;;;;;;;;5006000;28;20113;-51
2021/06/05 10:16:44;;;;;;;4.57;2.20;;;;;;;;;;5029625;28;20033;-51
2021/06/05 10:19:16;;;;;;;3.38;2.30;;;;;;;;;;5032419;28;20386;-51
2021/06/05 10:21:44;;;;;;;3.28;2.63;;;;;;;;;;5017764;28;20025;-50
2021/06/05 10:24:20;;;;;;;5.45;2.55;;;;;;;;;;5014619;28;20495;-50
2021/06/05 10:26:47;;;;;;;2.75;2.22;;;;;;;;;;5033965;28;20026;-52
2021/06/05 10:29:25;;;;;;;5.55;2.33;;;;;;;;;;5022335;28;20113;-52
2021/06/05 10:31:51;;;;;;;3.13;2.40;;;;;;;;;;5009833;28;20055;-52
2021/06/05 10:34:28;;;;;;;3.28;2.67;;;;;;;;;;5029050;28;20518;-51
2021/06/05 10:36:55;;;;;;;4.78;2.55;;;;;;;;;;5017932;28;20029;-50
2021/06/05 10:39:29;;;;;;;2.88;2.47;;;;;;;;;;5022692;28;20037;-51
2021/06/05 10:42:00;;;;;;;4.40;2.25;;;;;;;;;;5017935;28;20021;-51
2021/06/05 10:44:26;;;;;;;6.18;2.53;;;;;;;;;;5016438;28;20124;-51
2021/06/05 10:46:55;;;;;;;4.35;2.40;;;;;;;;;;5025110;28;20030;-55
2021/06/05 10:49:24;;;;;;;3.55;2.47;;;;;;;;;;5022915;28;20036;-52
2021/06/05 10:51:53;;;;;;;3.58;2.45;;;;;;;;;;5033852;28;20104;-53
2021/06/05 10:54:24;;;;;;;3.88;2.63;;;;;;;;;;5029610;28;20021;-57
2021/06/05 10:56:50;;;;;;;3.17;2.55;;;;;;;;;;5020483;28;20022;-54
2021/06/05 10:59:34;;;;;;;6.50;2.67;;;;;;;;;;5017702;28;20029;-52
2021/06/05 11:02:01;;;;;;;5.00;2.67;;;;;;;;;;5027632;28;20121;-54
2021/06/05 11:04:32;;;;;;;5.45;2.90;;;;;;;;;;5021204;28;20152;-53
2021/06/05 11:07:04;;;;;;;5.90;2.85;;;;;;;;;;5015727;28;20064;-52
2021/06/05 11:09:31;;;;;;;4.55;2.75;;;;;;;;;;5022031;28;20030;-55
2021/06/05 11:12:02;;;;;;;4.32;2.55;;;;;;;;;;5014776;28;20073;-51
2021/06/05 11:14:37;;;;;;;3.67;2.50;;;;;;;;;;5025174;28;20034;-52
2021/06/05 11:17:09;;;;;;;4.75;2.42;;;;;;;;;;5012946;28;20033;-51
2021/06/05 11:19:44;;;;;;;2.83;2.15;;;;;;;;;;5018066;28;20037;-52
2021/06/05 11:22:11;;;;;;;3.63;2.33;;;;;;;;;;5013654;28;20438;-54
2021/06/05 11:24:38;;;;;;;4.28;2.30;;;;;;;;;;5017101;28;20025;-50
2021/06/05 11:27:09;;;;;;;3.80;2.45;;;;;;;;;;5017050;28;20030;-50
2021/06/05 11:29:35;;;;;;;3.30;2.33;;;;;;;;;;5013709;28;20080;-51
2021/06/05 11:32:06;;;;;;;3.50;2.28;;;;;;;;;;5019487;28;20042;-51
2021/06/05 11:34:32;;;;;;;2.33;2.08;;;;;;;;;;5013227;28;20045;-50
2021/06/05 11:37:02;;;;;;;4.57;2.03;;;;;;;;;;5017916;28;20026;-52
2021/06/05 11:39:31;;;;;;;4.82;2.40;;;;;;;;;;5015228;28;20104;-50
2021/06/05 11:41:58;;;;;;;2.88;2.40;;;;;;;;;;5018042;28;20038;-51
2021/06/05 11:44:30;;;;;;;5.35;2.40;;;;;;;;;;5028194;28;20029;-50
2021/06/05 11:47:02;;;;;;;5.45;2.65;;;;;;;;;;5025641;28;20343;-51
2021/06/05 11:49:46;;;;;;;2.88;2.20;;;;;;;;;;5012312;28;20065;-54
2021/06/05 11:52:31;;;;;;;5.82;2.20;;;;;;;;;;5016421;28;20425;-53
2021/06/05 11:55:04;;;;;;;4.32;2.38;;;;;;;;;;5016825;28;20045;-52
2021/06/05 11:57:37;;;;;;;6.17;2.80;;;;;;;;;;5020266;28;20028;-50
2021/06/05 12:00:36;;;;;;;4.25;2.58;;;;;;;;;;5017123;28;20280;-50
2021/06/05 12:03:08;;;;;;;5.28;2.25;;;;;;;;;;4986451;28;20044;-50
2021/06/05 12:05:36;;;;;;;7.07;2.33;;;;;;;;;;5014730;28;20025;-52
2021/06/05 12:08:22;;;;;;;7.13;1.95;;;;;;;;;;5007004;28;20381;-51
2021/06/05 12:10:48;;;;;;;2.42;1.85;;;;;;;;;;5020404;28;20540;-51
2021/06/05 12:13:21;;;;;;;2.80;1.80;;;;;;;;;;5015436;28;20125;-54
2021/06/05 12:15:48;;;;;;;3.88;2.38;;;;;;;;;;5010737;28;20030;-53
2021/06/05 12:18:25;;;;;;;2.60;1.90;;;;;;;;;;5015514;28;20081;-55
2021/06/05 12:20:55;;;;;;;2.38;1.98;;;;;;;;;;5024948;28;20471;-56
2021/06/05 12:23:30;;;;;;;9.50;2.03;;;;;;;;;;5018318;28;20026;-53
2021/06/05 12:26:06;;;;;;;3.85;1.58;;;;;;;;;;5015395;28;20087;-54
2021/06/05 12:28:35;;;;;;;8.48;2.40;;;;;;;;;;5012495;28;20124;-54
2021/06/05 12:31:20;;;;;;;2.60;1.67;;;;;;;;;;5006261;28;20125;-51
2021/06/05 12:34:03;;;;;;;4.72;1.80;;;;;;;;;;5014230;28;20037;-54
2021/06/05 12:36:29;;;;;;;;;;;;;;;;;;5022347;28;20026;-53
2021/06/05 12:38:57;;;;;;;3.38;1.60;;;;;;;;;;5029418;28;19936;-52
2021/06/05 12:41:32;;;;;;;4.03;1.88;;;;;;;;;;5014863;28;20018;-54
2021/06/05 12:43:59;;;;;;;4.40;1.85;;;;;;;;;;5027210;28;20037;-56
2021/06/05 12:46:32;;;;;;;4.95;1.70;;;;;;;;;;5013450;28;20109;-52
2021/06/05 12:49:01;;;;;;;4.20;1.73;;;;;;;;;;5020191;28;20113;-53
2021/06/05 12:51:30;;;;;;;2.65;1.27;;;;;;;;;;5027503;28;20034;-50
2021/06/05 12:54:04;;;;;;;3.78;1.73;;;;;;;;;;5009827;28;20056;-51
2021/06/05 12:56:33;;;;;;;4.82;1.33;;;;;;;;;;5011814;28;20482;-50
2021/06/05 12:59:00;;;;;;;2.78;1.75;;;;;;;;;;5016128;28;20091;-51
2021/06/05 13:01:28;;;;;;;3.72;1.40;;;;;;;;;;5010672;28;20025;-52
2021/06/05 13:03:55;;;;;;;24.50;1.70;;;;;;;;;;5015433;28;20408;-51
2021/06/05 13:06:26;;;;;;;2.65;1.42;;;;;;;;;;5031576;28;20124;-53
2021/06/05 13:08:53;;;;;;;2.05;1.20;;;;;;;;;;5016728;28;21278;-52
2021/06/05 13:11:38;;;;;;;3.70;1.15;;;;;;;;;;5022089;28;20105;-51
2021/06/05 13:14:09;;;;;;;2.75;1.52;;;;;;;;;;5017881;28;20567;-53
2021/06/05 13:16:35;;;;;;;3.90;1.65;;;;;;;;;;5027341;28;20489;-51
2021/06/05 13:19:16;;;;;;;3.75;1.55;;;;;;;;;;5016806;28;20064;-52
2021/06/05 13:21:42;;;;;;;3.03;1.55;;;;;;;;;;5017348;28;20033;-55
2021/06/05 13:24:22;;;;;;;2.10;1.40;;;;;;;;;;5015907;28;20056;-53
2021/06/05 13:26:50;;;;;;;1.60;1.30;;;;;;;;;;5014465;28;20038;-55
2021/06/05 13:29:31;;;;;;;2.08;1.25;;;;;;;;;;5013720;28;20029;-53
2021/06/05 13:32:02;;;;;;;1.55;1.00;;;;;;;;;;5019762;28;20049;-52
2021/06/05 13:34:30;;;;;;;2.25;1.40;;;;;;;;;;5020067;28;20018;-54
2021/06/05 13:37:16;;;;;;;1.90;1.50;;;;;;;;;;5019155;28;20022;-50
2021/06/05 13:39:42;;;;;;;1.88;1.13;;;;;;;;;;5010587;28;20037;-50
2021/06/05 13:42:08;;;;;;;1.83;1.30;;;;;;;;;;5011417;28;20030;-51
2021/06/05 13:44:36;;;;;;;5.80;1.63;;;;;;;;;;5011395;28;20355;-53
2021/06/05 13:47:02;;;;;;;2.85;1.00;;;;;;;;;;5011235;28;20037;-52
2021/06/05 13:49:28;;;;;;;3.65;1.20;;;;;;;;;;5022156;28;20034;-56
2021/06/05 13:51:54;;;;;;;2.40;1.70;;;;;;;;;;5031884;28;20029;-52
2021/06/05 13:54:20;;;;;;;3.30;1.45;;;;;;;;;;5025835;28;20040;-52
2021/06/05 13:56:46;;;;;;;1.63;1.30;;;;;;;;;;5020556;28;20094;-51
2021/06/05 13:59:12;;;;;;;2.75;1.25;;;;;;;;;;5012269;28;20026;-53
2021/06/05 14:01:38;;;;;;;2.45;1.48;;;;;;;;;;5009740;28;20105;-54
2021/06/05 14:04:06;;;;;;;3.67;1.10;;;;;;;;;;5020589;28;20037;-51
2021/06/05 14:06:32;;;;;;;4.53;1.00;;;;;;;;;;5018862;28;20417;-52
2021/06/05 14:08:58;;;;;;;4.43;1.33;;;;;;;;;;5021287;28;20474;-53
2021/06/05 14:11:24;;;;;;;3.80;1.23;;;;;;;;;;5025897;28;20060;-50
2021/06/05 14:13:53;;;;;;;1.55;0.90;;;;;;;;;;5031710;28;20104;-52
2021/06/05 14:16:20;;;;;;;2.17;1.23;;;;;;;;;;5013621;28;20109;-53
2021/06/05 14:18:47;;;;;;;2.33;1.00;;;;;;;;;;5023259;28;20374;-53
2021/06/05 14:21:13;;;;;;;1.38;1.00;;;;;;;;;;5014883;28;20101;-55
2021/06/05 14:23:40;;;;;;;1.83;0.82;;;;;;;;;;5014151;28;20030;-52
2021/06/05 14:26:06;;;;;;;1.73;0.95;;;;;;;;;;5013759;28;20477;-52
2021/06/05 14:28:34;;;;;;;2.15;0.90;;;;;;;;;;5020097;28;20091;-51
2021/06/05 14:31:01;;;;;;;2.35;0.80;;;;;;;;;;5029771;28;20474;-53
2021/06/05 14:33:27;;;;;;;4.25;1.20;;;;;;;;;;5011115;28;20377;-53
2021/06/05 14:35:55;;;;;;;3.78;1.30;;;;;;;;;;5012674;28;20052;-54
2021/06/05 14:38:22;;;;;;;4.32;1.08;;;;;;;;;;5018531;28;20029;-55
2021/06/05 14:40:49;;;;;;;2.65;1.33;;;;;;;;;;5024443;28;20030;-53
2021/06/05 14:43:15;;;;;;;3.20;0.90;;;;;;;;;;5013561;28;20030;-53
2021/06/05 14:45:43;;;;;;;4.15;1.15;;;;;;;;;;5010927;28;20037;-54
2021/06/05 14:48:10;;;;;;;18.30;8.18;;;;;;;;;;5015599;28;20037;-51
2021/06/05 14:50:37;;;;;;;5.88;2.47;;;;;;;;;;5028217;28;20025;-52
2021/06/05 14:53:03;;;;;;;7.30;1.95;;;;;;;;;;5023499;28;20049;-51